Tri-City, KS

11:43 PM CDT on September 02, 2014 (GMT -0500)
Chanute Martin Johnson | Change Station
CLOSE
Current Station
Airport
Location: Chanute,
Elevation: 1001 ft
Nearby Weather Stations

Elev 1001 ft 37.67 °N, 95.48 °W | Updated 51 minutes ago

Overcast
Overcast
74 °F
Feels Like 74 °F
N
7
Wind Variable Wind from SE

Today
High -- | Low -- °F
--% Chance of Precip.
Yesterday
High -- | Low -- °F
Precip. -- in
6:53 AM 7:49 PM
First Quarter, 58% visible
Pressure 29.95 in
Visibility 10.0 miles
Clouds Mostly Cloudy 9000 ft
Overcast 10000 ft
Dew Point 69 °F
Humidity 85%
Rainfall 0.20 in
Snow Depth Not available.
UV 0 out of 12
Pollen 9.10 out of 12
Air Quality Not available.
Flu Activity Not available.
METAR KCNU 030352Z AUTO 14006KT 10SM BKN090 OVC100 23/21 A2998 RMK AO2 SLP142 T02330206

More Conditions Fewer Conditions

Pressure 29.95 in
Visibility 10.0 miles
Clouds Mostly Cloudy 9000 ft
Overcast 10000 ft
Dew Point 69 °F
Humidity 85%
Rainfall 0.20 in
Snow Depth Not available.
UV 0 out of 12
Pollen 9.10 out of 12
Air Quality Not available.
Flu Activity Not available.
METAR KCNU 030352Z AUTO 14006KT 10SM BKN090 OVC100 23/21 A2998 RMK AO2 SLP142 T02330206

More Conditions Fewer Conditions

10-Day Weather Forecast

Almanac

Astronomy

Sep. 02, 2014 Rise Set
Actual Time 6:53 AM CDT 7:49 PM CDT
Civil Twilight 6:26 AM CDT 8:15 PM CDT
Nautical Twilight 5:55 AM CDT 8:47 PM CDT
Astronomical Twilight 5:22 AM CDT 9:19 PM CDT
Moon 2:29 PM CDT (9/2) 12:01 AM CDT (9/2)
Length of Visible Light 13h 49m
Length of Day
12h 55m
Tomorrow will be 2m 19s shorter.
First Quarter, 58% of the Moon is Illuminated
Sep 3
First Quarter
Sep 8
Full
Sep 15
Last Quarter
Sep 24
New
Oct 1
First Quarter

Yesterday's Extremes

State Highs State Lows

Community

WunderPhotos

Upload Photos

1,749,875 photos uploaded!

Nearby

Snow Depth

Station Depth Elevation
No new snow has been reported.

Earthquake Activity

City Distance Mag. Time & Date
Perry, Oklahoma 131 miles 3.1 6:46 AM CDT
2014-09-01
Jones, Oklahoma 154 miles 3.1 1:49 PM CDT
2014-08-31
Minimum magnitude displayed is 2.5.

Coastal Water Temperatures

Place Temperature
No Stations Reporting

Nearby Weather Stations